Time;durP1;ratioP1;P1;durP2;ratioP2;P2;SDS_P1;SDS_P2;PMS_P1;PMS_P2;Temp;Humidity;BMP_temperature;BMP_pressure;BME280_temperature;BME280_humidity;BME280_pressure;Samples;Min_cycle;Max_cycle;Signal;HPM_P1;HPM_P2
2023/04/06 00:01:10;;;;;;;10.82;5.22;;;24.50;99.90;;;;;;5096116;22;20083;-48
2023/04/06 00:03:36;;;;;;;12.75;4.93;;;24.50;99.90;;;;;;5073933;28;20035;-48
2023/04/06 00:06:02;;;;;;;14.43;5.70;;;24.50;99.90;;;;;;5089085;28;20021;-48
2023/04/06 00:08:28;;;;;;;12.30;5.45;;;24.40;99.90;;;;;;5094659;28;20032;-48
2023/04/06 00:10:54;;;;;;;11.27;5.40;;;24.40;99.90;;;;;;5082046;28;20076;-48
2023/04/06 00:13:20;;;;;;;10.80;5.20;;;24.40;99.90;;;;;;5084133;28;20511;-48
2023/04/06 00:15:46;;;;;;;10.38;5.55;;;24.40;99.90;;;;;;5083546;28;20111;-48
2023/04/06 00:18:12;;;;;;;13.35;5.65;;;24.40;99.90;;;;;;5082272;28;20020;-48
2023/04/06 00:20:38;;;;;;;11.38;5.55;;;24.40;99.90;;;;;;5073861;28;20016;-49
2023/04/06 00:23:03;;;;;;;10.65;5.22;;;24.40;99.90;;;;;;5084264;28;20050;-49
2023/04/06 00:25:29;;;;;;;14.18;5.53;;;24.30;99.90;;;;;;5091517;28;20112;-49
2023/04/06 00:27:55;;;;;;;13.85;5.50;;;24.30;99.90;;;;;;5082029;28;20030;-48
2023/04/06 00:30:21;;;;;;;13.18;5.53;;;24.30;99.90;;;;;;5093599;28;20103;-49
2023/04/06 00:32:47;;;;;;;12.90;5.55;;;24.30;99.90;;;;;;5101080;28;20024;-49
2023/04/06 00:35:13;;;;;;;11.35;5.85;;;24.30;99.90;;;;;;5074166;28;20031;-48
2023/04/06 00:37:38;;;;;;;14.18;6.03;;;24.30;99.90;;;;;;5092583;28;20099;-48
2023/04/06 00:40:05;;;;;;;10.80;5.72;;;24.30;99.90;;;;;;5094282;28;20024;-48
2023/04/06 00:42:31;;;;;;;13.00;6.20;;;24.30;99.90;;;;;;5092200;28;20024;-49
2023/04/06 00:44:58;;;;;;;14.57;5.45;;;24.20;99.90;;;;;;5080189;28;20024;-49
2023/04/06 00:47:25;;;;;;;11.05;5.80;;;24.30;99.90;;;;;;5107519;28;20070;-49
2023/04/06 00:49:52;;;;;;;11.23;5.30;;;24.20;99.90;;;;;;5093865;28;20042;-49
2023/04/06 00:52:18;;;;;;;11.30;5.82;;;24.20;99.90;;;;;;5092550;28;20024;-49
2023/04/06 00:54:44;;;;;;;12.63;5.22;;;24.20;99.90;;;;;;5093671;28;20031;-49
2023/04/06 00:57:12;;;;;;;9.40;5.57;;;24.20;99.90;;;;;;5093703;28;20024;-48
2023/04/06 00:59:38;;;;;;;6.95;4.35;;;24.20;99.90;;;;;;5105505;22;20059;-43
2023/04/06 01:02:04;;;;;;;12.52;5.65;;;24.20;99.90;;;;;;5093515;28;20103;-43
2023/04/06 01:04:30;;;;;;;10.68;4.95;;;24.20;99.90;;;;;;5092005;28;20036;-44
2023/04/06 01:06:56;;;;;;;12.73;5.57;;;24.20;99.90;;;;;;5093416;28;20016;-43
2023/04/06 01:09:22;;;;;;;11.93;5.13;;;24.20;99.90;;;;;;5092180;28;20031;-43
2023/04/06 01:11:48;;;;;;;9.73;5.30;;;24.10;99.90;;;;;;5093168;28;20115;-43
2023/04/06 01:14:15;;;;;;;13.60;4.35;;;24.10;99.90;;;;;;5092096;28;20438;-43
2023/04/06 01:16:42;;;;;;;9.75;4.95;;;24.10;99.90;;;;;;5093458;28;20047;-44
2023/04/06 01:19:12;;;;;;;12.15;4.50;;;24.10;99.90;;;;;;5093695;28;20028;-44
2023/04/06 01:21:38;;;;;;;11.80;5.05;;;24.10;99.90;;;;;;5106958;28;20070;-43
2023/04/06 01:24:04;;;;;;;8.38;4.38;;;24.10;99.90;;;;;;5093063;28;20028;-44
2023/04/06 01:26:31;;;;;;;8.95;4.97;;;24.10;99.90;;;;;;5093419;28;20021;-43
2023/04/06 01:28:57;;;;;;;10.05;4.47;;;24.10;99.90;;;;;;5099127;28;20073;-43
2023/04/06 01:31:24;;;;;;;10.40;5.07;;;24.10;99.90;;;;;;5093116;28;20392;-44
2023/04/06 01:33:50;;;;;;;9.05;4.22;;;24.10;99.90;;;;;;5092987;28;20356;-44
2023/04/06 01:36:16;;;;;;;10.07;4.60;;;24.10;99.90;;;;;;5092981;28;20050;-44
2023/04/06 01:38:42;;;;;;;8.15;4.25;;;24.10;99.90;;;;;;5092712;28;20020;-43
2023/04/06 01:41:08;;;;;;;8.60;3.90;;;24.00;99.90;;;;;;5091641;28;20016;-44
2023/04/06 01:43:35;;;;;;;9.00;4.40;;;24.10;99.90;;;;;;5092910;28;20069;-44
2023/04/06 01:46:01;;;;;;;7.38;4.10;;;24.00;99.90;;;;;;5092700;28;20035;-44
2023/04/06 01:48:27;;;;;;;9.68;4.07;;;24.00;99.90;;;;;;5091336;28;20016;-43
2023/04/06 01:50:53;;;;;;;7.15;4.18;;;24.00;99.90;;;;;;5092571;28;20030;-43
2023/04/06 01:53:20;;;;;;;8.25;4.32;;;24.00;99.90;;;;;;5092683;28;20020;-43
2023/04/06 01:55:45;;;;;;;10.55;4.30;;;24.00;99.90;;;;;;5091200;28;20032;-44
2023/04/06 01:58:12;;;;;;;7.40;3.88;;;24.00;99.90;;;;;;5092751;28;20016;-45
2023/04/06 02:00:38;;;;;;;9.40;4.63;;;23.90;99.90;;;;;;5093249;28;20048;-44
2023/04/06 02:03:04;;;;;;;5.65;3.50;;;24.00;99.90;;;;;;5092445;28;20518;-45
2023/04/06 02:05:31;;;;;;;8.05;3.38;;;23.90;99.90;;;;;;5092638;28;20020;-44
2023/04/06 02:07:57;;;;;;;5.72;3.85;;;23.90;99.90;;;;;;5092297;28;20076;-44
2023/04/06 02:10:23;;;;;;;7.75;3.50;;;23.90;99.90;;;;;;5091200;28;20032;-44
2023/04/06 02:12:49;;;;;;;7.95;3.30;;;23.90;99.90;;;;;;5092124;28;20048;-44
2023/04/06 02:15:15;;;;;;;8.27;3.92;;;23.90;99.90;;;;;;5092510;28;20016;-43
2023/04/06 02:17:42;;;;;;;6.65;3.10;;;23.90;99.90;;;;;;5092397;28;20024;-44
2023/04/06 02:20:09;;;;;;;4.95;3.15;;;23.90;99.90;;;;;;5092334;28;20016;-44
2023/04/06 02:22:37;;;;;;;6.70;3.53;;;23.90;99.90;;;;;;5092104;28;20418;-44
2023/04/06 02:25:03;;;;;;;6.97;3.88;;;23.90;99.90;;;;;;5092312;28;20025;-44
2023/04/06 02:27:29;;;;;;;4.82;3.30;;;23.90;99.90;;;;;;5092245;28;20028;-44
2023/04/06 02:29:55;;;;;;;6.18;3.25;;;23.90;99.90;;;;;;5090762;28;20082;-44
2023/04/06 02:32:21;;;;;;;6.57;3.10;;;23.90;99.90;;;;;;5092067;28;20034;-44
2023/04/06 02:34:47;;;;;;;7.30;3.22;;;23.90;99.90;;;;;;5092031;28;20353;-44
2023/04/06 02:37:12;;;;;;;8.15;3.25;;;23.90;99.90;;;;;;5091947;28;20361;-45
2023/04/06 02:39:38;;;;;;;6.55;3.28;;;23.80;99.90;;;;;;5092186;28;20110;-44
2023/04/06 02:42:04;;;;;;;7.50;3.53;;;23.80;99.90;;;;;;5092231;28;20023;-44
2023/04/06 02:44:30;;;;;;;6.10;2.95;;;23.80;99.90;;;;;;5092080;28;20027;-44
2023/04/06 02:46:56;;;;;;;6.30;3.33;;;23.80;99.90;;;;;;5091952;28;20095;-44
2023/04/06 02:49:21;;;;;;;5.07;2.67;;;23.80;99.90;;;;;;5091707;28;20020;-44
2023/04/06 02:51:47;;;;;;;10.15;3.50;;;23.80;99.90;;;;;;5095819;28;20032;-44
2023/04/06 02:54:13;;;;;;;4.45;2.65;;;23.80;99.90;;;;;;5095793;28;20030;-44
2023/04/06 02:56:39;;;;;;;6.95;3.47;;;23.80;99.90;;;;;;5096098;28;20024;-44
2023/04/06 02:59:05;;;;;;;7.30;3.25;;;23.70;99.90;;;;;;5095997;28;20107;-44
2023/04/06 03:01:31;;;;;;;5.50;2.75;;;23.70;99.90;;;;;;5108306;22;20580;-48
2023/04/06 03:03:57;;;;;;;4.13;2.70;;;23.80;99.90;;;;;;5094699;28;20034;-48
2023/04/06 03:06:22;;;;;;;6.03;2.97;;;23.70;99.90;;;;;;5096156;28;20030;-50
2023/04/06 03:08:48;;;;;;;7.45;3.28;;;23.70;99.90;;;;;;5095956;28;20085;-48
2023/04/06 03:11:14;;;;;;;5.50;2.80;;;23.70;99.90;;;;;;5095814;28;20036;-50
2023/04/06 03:13:40;;;;;;;8.32;3.63;;;23.80;99.90;;;;;;5095946;28;20099;-49
2023/04/06 03:16:06;;;;;;;6.68;3.60;;;23.70;99.90;;;;;;5095701;28;20073;-47
2023/04/06 03:18:32;;;;;;;6.93;3.53;;;23.70;99.90;;;;;;5094551;28;20060;-48
2023/04/06 03:21:00;;;;;;;5.55;2.83;;;23.70;99.90;;;;;;5095403;28;20026;-49
2023/04/06 03:23:26;;;;;;;5.80;3.10;;;23.70;99.90;;;;;;5095667;28;20436;-48
2023/04/06 03:25:51;;;;;;;5.75;2.85;;;23.70;99.90;;;;;;5095382;28;20036;-48
2023/04/06 03:28:17;;;;;;;8.23;3.38;;;23.70;99.90;;;;;;5095423;28;20030;-48
2023/04/06 03:30:43;;;;;;;4.97;3.08;;;23.70;99.90;;;;;;5095140;28;20036;-48
2023/04/06 03:33:09;;;;;;;6.32;3.17;;;23.70;99.90;;;;;;5095282;28;20057;-48
2023/04/06 03:35:36;;;;;;;7.18;3.35;;;23.70;99.90;;;;;;5094157;28;20036;-48
2023/04/06 03:38:02;;;;;;;5.82;2.50;;;23.70;99.90;;;;;;5094047;28;20033;-48
2023/04/06 03:40:28;;;;;;;5.65;3.15;;;23.70;99.90;;;;;;5095154;28;20043;-49
2023/04/06 03:42:54;;;;;;;7.88;3.20;;;23.70;99.90;;;;;;5094959;28;20463;-48
2023/04/06 03:45:20;;;;;;;7.40;2.83;;;23.70;99.90;;;;;;5095081;28;20012;-49
2023/04/06 03:47:46;;;;;;;8.82;3.20;;;23.70;99.90;;;;;;5094931;28;20112;-48
2023/04/06 03:50:12;;;;;;;5.07;3.22;;;23.70;99.90;;;;;;5094925;28;20016;-49
2023/04/06 03:52:37;;;;;;;5.40;2.85;;;23.60;99.90;;;;;;5094873;28;20049;-48
2023/04/06 03:55:04;;;;;;;5.80;2.83;;;23.60;99.90;;;;;;5093910;28;20111;-48
2023/04/06 03:57:30;;;;;;;6.45;2.92;;;23.60;99.90;;;;;;5094813;28;20024;-49
2023/04/06 03:59:55;;;;;;;6.93;3.08;;;23.60;99.90;;;;;;5095291;28;20506;-49
2023/04/06 04:02:21;;;;;;;4.13;2.33;;;23.60;99.90;;;;;;5077014;28;20113;-49
2023/04/06 04:04:47;;;;;;;5.90;2.88;;;23.60;99.90;;;;;;5094741;28;20024;-49
2023/04/06 04:07:12;;;;;;;7.72;3.40;;;23.60;99.90;;;;;;5093555;28;20028;-49
2023/04/06 04:09:38;;;;;;;4.53;2.75;;;23.60;99.90;;;;;;5094636;28;20021;-47
2023/04/06 04:12:04;;;;;;;4.78;2.72;;;23.60;99.90;;;;;;5094861;28;20062;-47
2023/04/06 04:14:30;;;;;;;6.15;3.45;;;23.60;99.90;;;;;;5093233;28;20019;-48
2023/04/06 04:16:56;;;;;;;7.28;3.25;;;23.60;99.90;;;;;;5094514;28;20033;-48
2023/04/06 04:19:21;;;;;;;5.70;3.00;;;23.60;99.90;;;;;;5094168;28;20020;-48
2023/04/06 04:21:47;;;;;;;5.15;3.03;;;23.60;99.90;;;;;;5094553;28;20047;-48
2023/04/06 04:24:13;;;;;;;4.43;2.58;;;23.60;99.90;;;;;;5094174;28;20043;-48
2023/04/06 04:26:40;;;;;;;6.57;2.92;;;23.60;99.90;;;;;;5094345;28;20019;-48
2023/04/06 04:29:06;;;;;;;6.40;2.73;;;23.60;99.90;;;;;;5094483;28;20073;-48
2023/04/06 04:31:32;;;;;;;5.68;3.00;;;23.60;99.90;;;;;;5094177;28;20291;-48
2023/04/06 04:34:01;;;;;;;5.60;3.15;;;23.50;99.90;;;;;;5094232;28;20032;-48
2023/04/06 04:36:27;;;;;;;4.45;2.60;;;23.50;99.90;;;;;;5080944;28;20031;-49
2023/04/06 04:38:52;;;;;;;6.38;2.92;;;23.50;99.90;;;;;;5092547;28;20028;-48
2023/04/06 04:41:18;;;;;;;7.47;2.95;;;23.50;99.90;;;;;;5092854;28;20380;-48
2023/04/06 04:43:44;;;;;;;5.03;2.35;;;23.50;99.90;;;;;;5093910;28;20460;-48
2023/04/06 04:46:10;;;;;;;6.03;2.67;;;23.50;99.90;;;;;;5093928;28;20383;-48
2023/04/06 04:48:36;;;;;;;7.30;2.75;;;23.50;99.90;;;;;;5094016;28;20024;-48
2023/04/06 04:51:04;;;;;;;5.20;2.50;;;23.50;99.90;;;;;;5093601;28;20446;-48
2023/04/06 04:53:30;;;;;;;5.28;2.97;;;23.50;99.90;;;;;;5093898;28;20622;-49
2023/04/06 04:55:55;;;;;;;5.55;2.90;;;23.50;99.90;;;;;;5093677;28;20059;-49
2023/04/06 04:58:21;;;;;;;5.82;2.42;;;23.40;99.90;;;;;;5093861;28;20020;-49
2023/04/06 05:00:47;;;;;;;5.35;3.28;;;23.50;99.90;;;;;;5091959;28;20098;-49
2023/04/06 05:03:26;;;;;;;6.50;3.45;;;23.50;99.90;;;;;;5093663;28;20033;-49
2023/04/06 05:05:52;;;;;;;4.53;3.05;;;23.40;99.90;;;;;;5092518;28;20040;-48
2023/04/06 05:08:18;;;;;;;5.20;2.47;;;23.40;99.90;;;;;;5093722;28;20043;-48
2023/04/06 05:10:44;;;;;;;6.47;2.40;;;23.40;99.90;;;;;;5093566;28;20078;-48
2023/04/06 05:13:10;;;;;;;4.30;2.40;;;23.40;99.90;;;;;;5093387;28;20064;-49
2023/04/06 05:15:40;;;;;;;3.85;2.05;;;23.40;99.90;;;;;;5093840;28;20028;-48
2023/04/06 05:18:06;;;;;;;4.70;2.25;;;23.40;99.90;;;;;;5093609;28;20460;-48
2023/04/06 05:20:33;;;;;;;4.50;2.47;;;23.40;99.90;;;;;;5093387;28;20020;-49
2023/04/06 05:22:58;;;;;;;4.57;2.60;;;23.40;99.90;;;;;;5093212;28;20028;-48
2023/04/06 05:25:24;;;;;;;5.43;2.67;;;23.40;99.90;;;;;;5093428;28;20027;-48
2023/04/06 05:27:50;;;;;;;4.75;2.45;;;23.40;99.90;;;;;;5093103;28;20027;-49
2023/04/06 05:30:16;;;;;;;4.68;2.50;;;23.40;99.90;;;;;;5093111;28;20043;-49
2023/04/06 05:32:44;;;;;;;8.77;2.70;;;23.40;99.90;;;;;;5093053;28;20024;-49
2023/04/06 05:35:10;;;;;;;;;;;23.30;99.90;;;;;;5093704;28;20019;-49
2023/04/06 05:37:35;;;;;;;3.90;2.42;;;23.40;99.90;;;;;;5093069;28;19911;-48
2023/04/06 05:40:02;;;;;;;5.68;2.28;;;23.40;99.90;;;;;;5093152;28;20380;-48
2023/04/06 05:42:27;;;;;;;6.65;2.60;;;23.40;99.90;;;;;;5092890;28;20039;-48
2023/04/06 05:44:53;;;;;;;2.90;2.05;;;23.30;99.90;;;;;;5093013;28;20020;-48
2023/04/06 05:47:19;;;;;;;7.55;2.55;;;23.30;99.90;;;;;;5092673;28;20047;-48
2023/04/06 05:49:45;;;;;;;5.53;3.40;;;23.30;99.90;;;;;;5092899;28;20416;-48
2023/04/06 05:52:11;;;;;;;5.25;3.10;;;23.30;99.90;;;;;;5092870;28;20115;-47
2023/04/06 05:54:37;;;;;;;4.15;2.75;;;23.30;99.90;;;;;;5092836;28;20066;-49
2023/04/06 05:57:03;;;;;;;5.25;2.60;;;23.30;99.90;;;;;;5092665;28;20032;-48
2023/04/06 05:59:31;;;;;;;5.68;2.72;;;23.30;99.90;;;;;;5092219;28;20031;-47
2023/04/06 06:01:57;;;;;;;4.03;2.00;;;23.30;99.90;;;;;;5092602;28;20027;-49
2023/04/06 06:04:23;;;;;;;5.88;2.13;;;23.30;99.90;;;;;;5092565;28;20028;-49
2023/04/06 06:06:48;;;;;;;5.93;2.88;;;23.30;99.90;;;;;;5092580;28;20495;-48
2023/04/06 06:09:14;;;;;;;6.50;3.00;;;23.30;99.90;;;;;;5092507;28;20341;-49
2023/04/06 06:11:40;;;;;;;6.03;2.92;;;23.30;99.90;;;;;;5092401;28;20020;-49
2023/04/06 06:14:06;;;;;;;6.72;2.72;;;23.30;99.90;;;;;;5092340;28;20027;-49
2023/04/06 06:16:32;;;;;;;6.70;2.45;;;23.30;99.90;;;;;;5092490;28;20418;-49
2023/04/06 06:18:58;;;;;;;5.57;2.38;;;23.20;99.90;;;;;;5092303;28;20020;-49
2023/04/06 06:21:24;;;;;;;5.15;2.55;;;23.30;99.90;;;;;;5092380;28;20020;-49
2023/04/06 06:23:50;;;;;;;5.47;2.35;;;23.20;99.90;;;;;;5091725;28;20021;-49
2023/04/06 06:26:16;;;;;;;8.25;3.30;;;23.20;99.90;;;;;;5078068;28;20557;-49
2023/04/06 06:28:42;;;;;;;3.50;2.20;;;23.20;99.90;;;;;;5092278;28;20024;-48
2023/04/06 06:31:08;;;;;;;3.90;2.30;;;23.20;99.90;;;;;;5092013;28;20036;-49
2023/04/06 06:33:34;;;;;;;7.38;2.30;;;23.20;99.90;;;;;;5092195;28;20055;-49
2023/04/06 06:36:00;;;;;;;4.50;2.65;;;23.20;99.90;;;;;;5090672;28;20032;-49
2023/04/06 06:38:26;;;;;;;5.57;2.45;;;23.20;99.90;;;;;;5091413;28;20019;-49
2023/04/06 06:40:52;;;;;;;4.50;2.28;;;23.20;99.90;;;;;;5090635;28;20100;-49
2023/04/06 06:43:18;;;;;;;6.57;2.55;;;23.20;99.90;;;;;;5088687;28;20028;-49
2023/04/06 06:45:44;;;;;;;6.05;2.67;;;23.20;99.90;;;;;;5092283;28;20023;-49
2023/04/06 06:48:10;;;;;;;5.88;2.38;;;23.20;99.90;;;;;;5092181;28;20031;-49
2023/04/06 06:50:36;;;;;;;3.30;2.15;;;23.20;99.90;;;;;;5077619;28;20365;-49
2023/04/06 06:53:02;;;;;;;6.15;2.40;;;23.20;99.90;;;;;;5091685;28;20023;-50
2023/04/06 06:55:28;;;;;;;12.75;5.03;;;23.20;99.90;;;;;;5091944;28;20024;-50
2023/04/06 06:57:54;;;;;;;8.10;3.20;;;23.20;99.90;;;;;;5091997;28;20050;-51
2023/04/06 07:00:22;;;;;;;8.32;3.20;;;23.20;99.90;;;;;;5091386;28;20491;-50
2023/04/06 07:02:48;;;;;;;8.10;3.17;;;23.20;99.90;;;;;;5090915;28;20063;-51
2023/04/06 07:05:16;;;;;;;11.88;3.08;;;23.20;99.90;;;;;;5092216;28;20056;-50
2023/04/06 07:07:42;;;;;;;7.35;2.83;;;23.20;99.90;;;;;;5089822;28;20442;-48
2023/04/06 07:10:08;;;;;;;5.95;2.42;;;23.20;99.90;;;;;;5076906;28;20033;-49
2023/04/06 07:12:34;;;;;;;9.38;3.60;;;23.20;99.90;;;;;;5072075;28;20016;-49
2023/04/06 07:15:00;;;;;;;10.50;3.20;;;23.20;99.90;;;;;;5087352;28;20031;-48
2023/04/06 07:17:26;;;;;;;7.97;2.70;;;23.20;99.90;;;;;;5076141;28;20033;-48
2023/04/06 07:19:52;;;;;;;13.50;3.15;;;23.20;99.90;;;;;;5086989;28;20074;-48
2023/04/06 07:22:18;;;;;;;9.18;2.70;;;23.20;99.90;;;;;;5085578;28;20039;-49
2023/04/06 07:24:44;;;;;;;9.70;2.90;;;23.20;99.90;;;;;;5089476;28;20099;-49
2023/04/06 07:27:09;;;;;;;10.65;3.47;;;23.20;99.90;;;;;;5078475;28;20048;-48
2023/04/06 07:29:35;;;;;;;9.05;3.20;;;23.20;99.90;;;;;;5089447;28;20016;-49
2023/04/06 07:32:01;;;;;;;8.82;2.85;;;23.20;99.90;;;;;;5089050;28;20032;-48
2023/04/06 07:34:27;;;;;;;10.38;2.72;;;23.10;99.90;;;;;;5089596;28;20087;-48
2023/04/06 07:36:53;;;;;;;7.53;2.60;;;23.20;99.90;;;;;;5091689;28;20032;-48
2023/04/06 07:39:19;;;;;;;9.68;2.95;;;23.20;99.90;;;;;;5091287;28;20016;-49
2023/04/06 07:41:45;;;;;;;12.88;3.28;;;23.20;99.90;;;;;;5088518;28;20481;-49
2023/04/06 07:44:11;;;;;;;12.75;3.13;;;23.20;99.90;;;;;;5093082;28;20040;-48
2023/04/06 07:46:37;;;;;;;10.13;3.63;;;23.20;99.90;;;;;;5092958;28;20658;-49
2023/04/06 07:49:02;;;;;;;11.07;3.25;;;23.30;99.90;;;;;;5087373;28;20062;-49
2023/04/06 07:51:29;;;;;;;8.02;3.10;;;23.20;99.90;;;;;;5092571;28;20040;-49
2023/04/06 07:53:54;;;;;;;9.73;3.17;;;23.20;99.90;;;;;;5092016;28;20043;-49
2023/04/06 07:56:21;;;;;;;11.20;3.90;;;23.30;99.90;;;;;;5087884;28;20494;-47
2023/04/06 07:58:47;;;;;;;13.15;3.80;;;23.30;99.90;;;;;;5090555;28;20133;-47
2023/04/06 08:01:13;;;;;;;11.48;2.95;;;23.30;99.90;;;;;;5085188;28;20046;-48
2023/04/06 08:03:39;;;;;;;13.43;3.50;;;23.30;99.90;;;;;;5092343;28;20036;-48
2023/04/06 08:06:05;;;;;;;10.82;3.72;;;23.30;99.90;;;;;;5092958;28;20042;-48
2023/04/06 08:08:31;;;;;;;14.10;3.63;;;23.30;99.90;;;;;;5083470;28;20025;-49
2023/04/06 08:10:57;;;;;;;14.43;3.78;;;23.30;99.90;;;;;;5092359;28;20024;-48
2023/04/06 08:13:23;;;;;;;14.13;3.60;;;23.30;99.90;;;;;;5089079;28;20528;-48
2023/04/06 08:15:49;;;;;;;17.92;4.35;;;23.30;99.90;;;;;;5092594;28;20456;-48
2023/04/06 08:18:15;;;;;;;17.35;4.05;;;23.40;99.90;;;;;;5092834;28;20024;-48
2023/04/06 08:20:40;;;;;;;11.43;4.07;;;23.40;99.90;;;;;;5092283;28;20388;-48
2023/04/06 08:23:06;;;;;;;14.68;3.83;;;23.40;99.90;;;;;;5083515;28;20024;-48
2023/04/06 08:25:35;;;;;;;16.17;3.75;;;23.40;99.90;;;;;;5084393;28;20052;-48
2023/04/06 08:28:01;;;;;;;13.93;3.55;;;23.40;99.90;;;;;;5092182;28;20423;-48
2023/04/06 08:30:27;;;;;;;8.73;3.90;;;23.40;99.90;;;;;;5089235;28;20028;-47
2023/04/06 08:32:52;;;;;;;12.98;3.83;;;23.40;99.90;;;;;;5091615;28;20396;-48
2023/04/06 08:35:18;;;;;;;11.15;2.63;;;23.40;99.90;;;;;;5092242;28;20103;-48
2023/04/06 08:37:44;;;;;;;8.57;3.00;;;23.40;99.90;;;;;;5089295;28;20111;-48
2023/04/06 08:40:11;;;;;;;8.50;3.08;;;23.40;99.90;;;;;;5092044;28;20489;-49
2023/04/06 08:42:43;;;;;;;8.03;2.43;;;23.40;99.90;;;;;;5090519;28;20032;-48
2023/04/06 08:45:10;;;;;;;6.85;2.45;;;23.50;99.90;;;;;;5090055;28;20269;-49
2023/04/06 08:47:40;;;;;;;6.20;2.78;;;23.50;99.90;;;;;;5090706;28;20511;-49
2023/04/06 08:50:07;;;;;;;7.38;2.80;;;23.50;99.90;;;;;;5091879;28;20055;-48
2023/04/06 08:52:34;;;;;;;5.82;2.80;;;23.50;99.90;;;;;;5091454;28;20476;-48
2023/04/06 08:55:00;;;;;;;5.00;2.63;;;23.50;99.90;;;;;;5088613;28;20044;-48
2023/04/06 08:57:26;;;;;;;6.40;2.50;;;23.50;99.90;;;;;;5091774;28;20062;-48
2023/04/06 08:59:54;;;;;;;9.77;3.38;;;23.50;99.90;;;;;;5091352;28;20328;-49
2023/04/06 09:02:20;;;;;;;8.43;2.63;;;23.60;99.90;;;;;;5087881;28;20085;-49
2023/04/06 09:04:52;;;;;;;8.57;2.90;;;23.60;99.90;;;;;;5089846;28;20113;-49
2023/04/06 09:07:17;;;;;;;5.15;2.00;;;23.50;99.90;;;;;;5091775;28;20047;-48
2023/04/06 09:09:47;;;;;;;8.40;3.20;;;23.60;99.90;;;;;;5090986;28;20035;-48
2023/04/06 09:12:23;;;;;;;5.22;2.72;;;23.60;99.90;;;;;;5087351;28;20531;-48
2023/04/06 09:14:49;;;;;;;6.18;2.25;;;23.60;99.90;;;;;;5091047;28;20028;-48
2023/04/06 09:17:26;;;;;;;5.10;2.28;;;23.60;99.90;;;;;;5091097;28;20031;-49
2023/04/06 09:19:52;;;;;;;7.03;2.20;;;23.60;99.90;;;;;;5088501;28;20039;-48
2023/04/06 09:22:19;;;;;;;6.15;3.08;;;23.60;99.90;;;;;;5090037;28;20044;-49
2023/04/06 09:24:46;;;;;;;5.68;1.95;;;23.60;99.90;;;;;;5088451;28;20496;-48
2023/04/06 09:27:12;;;;;;;7.20;2.58;;;23.60;99.90;;;;;;5088403;28;20518;-48
2023/04/06 09:29:38;;;;;;;11.57;3.50;;;23.60;99.90;;;;;;5088851;28;20030;-48
2023/04/06 09:32:05;;;;;;;5.43;3.00;;;23.70;99.90;;;;;;5085347;28;20028;-49
2023/04/06 09:34:32;;;;;;;9.70;3.05;;;23.60;99.90;;;;;;5088859;28;20094;-49
2023/04/06 09:36:58;;;;;;;8.77;3.40;;;23.70;99.90;;;;;;5089324;28;20449;-49
2023/04/06 09:39:24;;;;;;;12.98;4.28;;;23.70;99.90;;;;;;5090550;28;20095;-49
2023/04/06 09:41:54;;;;;;;4.85;2.85;;;23.70;99.90;;;;;;5088866;28;20020;-48
2023/04/06 09:44:20;;;;;;;5.70;2.70;;;23.70;99.90;;;;;;5091082;28;20075;-49
2023/04/06 09:46:46;;;;;;;5.10;2.92;;;23.70;99.90;;;;;;5090622;28;20099;-49
2023/04/06 09:49:13;;;;;;;7.78;3.03;;;23.70;99.90;;;;;;5090996;28;20115;-47
2023/04/06 09:51:41;;;;;;;7.78;3.58;;;23.70;99.90;;;;;;5090183;28;20066;-48
2023/04/06 09:54:07;;;;;;;7.85;3.15;;;23.70;99.90;;;;;;5090934;28;20468;-48
2023/04/06 09:56:46;;;;;;;9.18;3.28;;;23.70;99.90;;;;;;5085876;28;20062;-46
2023/04/06 09:59:30;;;;;;;40.35;4.70;;;23.70;99.90;;;;;;5087473;28;20022;-46
2023/04/06 10:01:58;;;;;;;18.20;1.98;;;23.80;99.90;;;;;;5088304;28;20401;-47
2023/04/06 10:04:33;;;;;;;7.75;1.58;;;23.80;99.90;;;;;;5090107;28;20025;-46
2023/04/06 10:07:01;;;;;;;6.47;1.02;;;23.80;99.90;;;;;;5087551;28;20032;-46
2023/04/06 10:09:35;;;;;;;7.20;1.08;;;23.80;99.90;;;;;;5090270;28;20027;-46
2023/04/06 10:12:05;;;;;;;3.95;0.80;;;23.70;99.90;;;;;;5088105;28;20050;-46
2023/04/06 10:14:36;;;;;;;4.05;1.83;;;23.70;99.90;;;;;;5087814;28;20027;-46
2023/04/06 10:17:05;;;;;;;7.15;0.85;;;23.70;99.90;;;;;;5089813;28;20048;-47
2023/04/06 10:19:59;;;;;;;5.25;1.10;;;23.70;99.90;;;;;;5086071;28;20030;-46
2023/04/06 10:22:53;;;;;;;7.82;2.55;;;23.70;99.90;;;;;;5087079;28;20024;-46
2023/04/06 10:25:35;;;;;;;7.95;2.33;;;23.70;99.90;;;;;;5080074;28;20476;-45
2023/04/06 10:28:11;;;;;;;6.60;2.25;;;23.70;99.90;;;;;;5089705;28;20020;-46
2023/04/06 10:30:43;;;;;;;9.55;1.10;;;23.80;99.90;;;;;;5089313;28;20032;-46
2023/04/06 10:33:18;;;;;;;7.47;1.10;;;23.70;99.90;;;;;;5089704;28;20035;-47
2023/04/06 10:35:44;;;;;;;6.22;0.95;;;23.70;99.90;;;;;;5089457;28;20023;-46
2023/04/06 10:38:13;;;;;;;6.95;1.00;;;23.80;99.90;;;;;;5090169;28;20028;-47
2023/04/06 10:40:40;;;;;;;3.85;1.17;;;23.80;99.90;;;;;;5087068;28;20157;-47
2023/04/06 10:43:14;;;;;;;3.60;0.98;;;23.70;99.90;;;;;;5089823;28;20016;-47
2023/04/06 10:45:40;;;;;;;4.82;0.77;;;23.70;99.90;;;;;;5087401;28;20028;-47
2023/04/06 10:48:42;;;;;;;5.77;1.20;;;23.80;99.90;;;;;;5086762;28;20023;-46
2023/04/06 10:51:12;;;;;;;3.35;0.68;;;23.80;99.90;;;;;;5089474;28;20032;-47
2023/04/06 10:53:38;;;;;;;8.60;3.35;;;23.80;99.90;;;;;;5089202;28;20491;-47
2023/04/06 10:56:11;;;;;;;16.88;9.68;;;23.80;99.90;;;;;;5083888;28;20410;-47
2023/04/06 10:58:37;;;;;;;140.55;107.35;;;23.80;99.90;;;;;;5089709;28;20020;-49
2023/04/06 11:01:03;;;;;;;199.73;155.15;;;23.80;99.90;;;;;;5089796;28;20048;-48
2023/04/06 11:03:29;;;;;;;64.28;51.00;;;23.80;99.90;;;;;;5086210;28;20074;-48
2023/04/06 11:05:55;;;;;;;77.65;57.90;;;23.80;99.90;;;;;;5086999;28;20082;-48
2023/04/06 11:08:32;;;;;;;53.35;40.78;;;23.80;99.90;;;;;;5089901;28;20443;-49
2023/04/06 11:11:10;;;;;;;140.63;99.43;;;23.80;99.90;;;;;;5088027;28;20043;-49
2023/04/06 11:13:43;;;;;;;62.30;42.88;;;23.80;99.90;;;;;;5092335;28;20496;-49
2023/04/06 11:16:30;;;;;;;35.38;21.42;;;23.80;99.90;;;;;;5090073;28;20123;-48
2023/04/06 11:19:01;;;;;;;13.48;8.38;;;23.80;99.90;;;;;;5092118;28;20030;-47
2023/04/06 11:21:41;;;;;;;44.35;27.85;;;23.80;99.90;;;;;;5090783;28;20039;-47
2023/04/06 11:24:15;;;;;;;191.52;140.70;;;23.90;99.90;;;;;;5093371;28;20107;-47
2023/04/06 11:26:51;;;;;;;113.55;71.25;;;23.90;99.90;;;;;;5093089;28;20012;-47
2023/04/06 11:29:19;;;;;;;160.88;105.88;;;23.80;99.90;;;;;;5088851;28;20024;-48
2023/04/06 11:32:03;;;;;;;279.80;194.18;;;23.90;99.90;;;;;;5092400;28;20040;-47
2023/04/06 11:34:36;;;;;;;267.17;209.27;;;23.90;99.90;;;;;;5092738;28;20091;-47
2023/04/06 11:37:06;;;;;;;150.65;103.93;;;23.90;99.90;;;;;;5091712;28;20048;-48
2023/04/06 11:39:39;;;;;;;36.72;24.05;;;23.90;99.90;;;;;;5089174;28;20035;-47
2023/04/06 11:42:05;;;;;;;40.33;25.52;;;23.90;99.90;;;;;;5090245;28;20612;-47
2023/04/06 11:44:38;;;;;;;21.85;11.25;;;23.90;99.90;;;;;;5093060;28;20079;-48
2023/04/06 11:47:07;;;;;;;11.20;4.50;;;23.90;99.90;;;;;;5088349;28;20050;-47
2023/04/06 11:49:36;;;;;;;5.07;2.33;;;23.90;99.90;;;;;;5091490;28;20387;-47
2023/04/06 11:52:02;;;;;;;10.52;2.03;;;23.90;99.90;;;;;;5089805;28;20411;-46
2023/04/06 11:54:37;;;;;;;7.70;2.10;;;23.90;99.90;;;;;;5092695;28;20024;-46
2023/04/06 11:57:07;;;;;;;5.22;1.90;;;23.90;99.90;;;;;;5092431;28;20023;-47
2023/04/06 11:59:33;;;;;;;7.10;2.40;;;23.90;99.90;;;;;;5090616;28;20032;-45
2023/04/06 12:02:00;;;;;;;5.90;1.80;;;23.90;99.90;;;;;;5092632;28;20098;-46
2023/04/06 12:04:26;;;;;;;5.60;1.97;;;23.90;99.90;;;;;;5092863;28;20108;-46
2023/04/06 12:06:52;;;;;;;3.75;1.60;;;23.90;99.90;;;;;;5089295;28;20824;-47
2023/04/06 12:09:18;;;;;;;4.60;1.50;;;24.00;99.90;;;;;;5092099;28;20028;-49
2023/04/06 12:11:44;;;;;;;8.13;1.60;;;24.00;99.90;;;;;;5092494;28;20044;-48
2023/04/06 12:14:11;;;;;;;8.40;1.83;;;24.00;99.90;;;;;;5090765;28;20111;-49
2023/04/06 12:16:37;;;;;;;6.03;1.50;;;24.00;99.90;;;;;;5092527;28;20204;-47
2023/04/06 12:19:02;;;;;;;4.80;1.25;;;24.00;99.90;;;;;;5092553;28;20106;-49
2023/04/06 12:21:30;;;;;;;7.50;2.33;;;24.00;99.90;;;;;;5092307;28;20039;-47
2023/04/06 12:24:00;;;;;;;10.93;2.10;;;24.00;99.90;;;;;;5088207;28;20020;-48
2023/04/06 12:26:27;;;;;;;7.28;2.30;;;24.10;99.90;;;;;;5092266;28;20043;-48
2023/04/06 12:28:53;;;;;;;11.13;1.70;;;24.00;99.90;;;;;;5088851;28;20028;-47
2023/04/06 12:31:21;;;;;;;8.20;2.60;;;24.00;99.90;;;;;;5094995;28;20428;-50
2023/04/06 12:33:48;;;;;;;10.82;4.05;;;24.10;99.90;;;;;;5089043;28;20031;-48
2023/04/06 12:36:15;;;;;;;8.48;2.20;;;24.10;99.90;;;;;;5091524;28;20034;-48
2023/04/06 12:38:41;;;;;;;15.20;4.43;;;24.10;99.90;;;;;;5090043;28;20371;-48
2023/04/06 12:41:08;;;;;;;6.85;4.30;;;24.10;99.90;;;;;;5083049;28;20024;-51
2023/04/06 12:43:34;;;;;;;6.38;2.92;;;24.10;99.90;;;;;;5088129;28;20028;-46